Time;durP1;ratioP1;P1;durP2;ratioP2;P2;SDS_P1;SDS_P2;PMS_P1;PMS_P2;Temp;Humidity;BMP_temperature;BMP_pressure;BME280_temperature;BME280_humidity;BME280_pressure;Samples;Min_cycle;Max_cycle;Signal;HPM_P1;HPM_P2
2020/12/26 00:01:19;;;;;;;1.23;1.13;;;1.70;99.90;;;;;;4935709;29;20209;-67
2020/12/26 00:03:48;;;;;;;2.97;2.78;;;1.80;99.90;;;;;;4936149;29;20181;-70
2020/12/26 00:06:16;;;;;;;4.18;1.75;;;1.70;99.90;;;;;;4936038;29;20177;-68
2020/12/26 00:08:44;;;;;;;1.67;1.58;;;1.70;99.90;;;;;;4919340;29;20287;-68
2020/12/26 00:11:12;;;;;;;4.53;1.58;;;1.70;99.90;;;;;;4936129;29;20196;-67
2020/12/26 00:13:40;;;;;;;2.92;1.35;;;1.70;99.90;;;;;;4936150;29;20188;-68
2020/12/26 00:16:10;;;;;;;3.83;2.17;;;1.60;99.90;;;;;;4936002;29;20693;-67
2020/12/26 00:18:37;;;;;;;2.97;1.92;;;1.60;99.90;;;;;;4935568;29;20181;-69
2020/12/26 00:21:06;;;;;;;2.22;1.40;;;1.60;99.90;;;;;;4919397;29;20279;-68
2020/12/26 00:23:34;;;;;;;1.10;0.80;;;1.60;99.90;;;;;;4935553;29;20718;-68
2020/12/26 00:26:01;;;;;;;1.50;1.35;;;1.60;99.90;;;;;;4935914;29;20184;-68
2020/12/26 00:28:28;;;;;;;3.05;2.47;;;1.60;99.90;;;;;;4935428;29;20196;-67
2020/12/26 00:30:55;;;;;;;8.93;1.75;;;1.60;99.90;;;;;;4935474;29;20220;-67
2020/12/26 00:33:23;;;;;;;6.68;0.90;;;1.50;99.90;;;;;;4935390;29;20193;-66
2020/12/26 00:35:50;;;;;;;9.70;1.88;;;1.50;99.90;;;;;;4935596;29;20753;-67
2020/12/26 00:38:18;;;;;;;1.42;1.30;;;1.50;99.90;;;;;;4935809;29;20199;-68
2020/12/26 00:40:45;;;;;;;2.97;2.05;;;1.50;99.90;;;;;;4935502;29;20220;-68
2020/12/26 00:43:12;;;;;;;1.77;1.50;;;1.50;99.90;;;;;;4935288;29;20215;-68
2020/12/26 00:45:39;;;;;;;2.13;1.35;;;1.50;99.90;;;;;;4935293;29;20280;-68
2020/12/26 00:48:06;;;;;;;1.23;0.77;;;1.50;99.90;;;;;;4920362;29;20197;-68
2020/12/26 00:50:35;;;;;;;1.80;1.33;;;1.50;99.90;;;;;;4938714;29;20288;-69
2020/12/26 00:53:02;;;;;;;1.63;1.52;;;1.50;99.90;;;;;;4939020;29;20185;-69
2020/12/26 00:55:30;;;;;;;1.27;1.00;;;1.50;99.90;;;;;;4919414;29;20213;-69
2020/12/26 00:57:57;;;;;;;2.70;1.38;;;1.50;99.90;;;;;;4918195;29;20208;-68
2020/12/26 01:00:24;;;;;;;2.47;1.70;;;1.50;99.90;;;;;;4935476;29;20191;-68
2020/12/26 01:03:14;;;;;;;2.50;1.13;;;1.40;99.90;;;;;;4918361;29;20209;-68
2020/12/26 01:05:43;;;;;;;6.05;3.85;;;1.50;99.90;;;;;;4918042;29;20216;-69
2020/12/26 01:08:10;;;;;;;5.97;1.50;;;1.40;99.90;;;;;;4935595;29;20283;-68
2020/12/26 01:10:37;;;;;;;4.82;1.63;;;1.50;99.90;;;;;;4935248;29;20184;-68
2020/12/26 01:13:04;;;;;;;3.70;2.67;;;1.50;99.90;;;;;;4974097;23;20261;-61
2020/12/26 01:15:32;;;;;;;4.57;2.97;;;1.50;99.90;;;;;;4914709;29;20208;-54
2020/12/26 01:17:59;;;;;;;1.50;1.15;;;1.50;99.90;;;;;;4917102;29;20197;-60
2020/12/26 01:20:26;;;;;;;2.35;1.25;;;1.50;99.90;;;;;;4928970;29;20315;-59
2020/12/26 01:22:54;;;;;;;8.98;2.08;;;1.50;99.90;;;;;;4935152;29;20207;-57
2020/12/26 01:25:21;;;;;;;2.17;2.05;;;1.50;99.90;;;;;;4938587;29;20634;-60
2020/12/26 01:27:48;;;;;;;1.67;1.58;;;1.50;99.90;;;;;;4940080;29;20185;-59
2020/12/26 01:30:15;;;;;;;1.70;1.27;;;1.50;99.90;;;;;;4939132;29;20716;-59
2020/12/26 01:32:42;;;;;;;1.20;1.08;;;1.40;99.90;;;;;;4939432;29;20189;-59
2020/12/26 01:35:09;;;;;;;3.72;1.20;;;1.40;99.90;;;;;;4961626;29;20549;-60
2020/12/26 01:37:36;;;;;;;0.98;0.85;;;1.40;99.90;;;;;;4958479;29;20345;-61
2020/12/26 01:40:10;;;;;;;2.03;1.33;;;1.40;99.90;;;;;;4958056;29;20207;-61
2020/12/26 01:42:38;;;;;;;2.67;1.42;;;1.50;99.90;;;;;;4940076;29;20680;-63
2020/12/26 01:45:05;;;;;;;5.57;3.00;;;1.50;99.90;;;;;;4956491;29;20196;-60
2020/12/26 01:47:33;;;;;;;2.47;1.38;;;1.50;99.90;;;;;;4957319;29;20637;-62
2020/12/26 01:50:14;;;;;;;3.78;2.63;;;1.50;99.90;;;;;;4957188;29;20723;-57
2020/12/26 01:52:42;;;;;;;1.40;1.20;;;1.50;99.90;;;;;;4957315;29;20180;-61
2020/12/26 01:55:12;;;;;;;1.70;1.50;;;1.50;99.90;;;;;;4958037;29;20665;-61
2020/12/26 01:57:49;;;;;;;1.55;1.45;;;1.50;99.90;;;;;;4941260;29;20523;-60
2020/12/26 02:00:17;;;;;;;2.00;1.80;;;1.40;99.90;;;;;;4957845;29;20576;-57
2020/12/26 02:02:45;;;;;;;2.47;1.40;;;1.40;99.90;;;;;;4956973;29;20207;-62
2020/12/26 02:05:14;;;;;;;2.92;1.65;;;1.40;99.90;;;;;;4956812;29;20207;-57
2020/12/26 02:07:44;;;;;;;3.08;1.17;;;1.50;99.90;;;;;;4956078;29;20221;-60
2020/12/26 02:10:14;;;;;;;2.80;1.48;;;1.50;99.90;;;;;;4956294;29;20564;-57
2020/12/26 02:12:41;;;;;;;4.18;2.25;;;1.60;99.90;;;;;;4938374;29;20651;-60
2020/12/26 02:15:13;;;;;;;1.13;0.98;;;1.50;99.90;;;;;;4956138;29;20190;-60
2020/12/26 02:17:40;;;;;;;1.40;1.23;;;1.50;99.90;;;;;;4956614;29;20260;-60
2020/12/26 02:20:08;;;;;;;2.83;2.63;;;1.50;99.90;;;;;;4938447;29;20215;-61
2020/12/26 02:22:36;;;;;;;6.07;2.10;;;1.50;99.90;;;;;;4938924;29;20720;-58
2020/12/26 02:25:04;;;;;;;2.85;1.60;;;1.40;99.90;;;;;;4938997;29;20192;-61
2020/12/26 02:27:32;;;;;;;2.47;1.60;;;1.30;99.90;;;;;;4957019;29;20179;-61
2020/12/26 02:29:59;;;;;;;2.15;1.45;;;1.30;99.90;;;;;;4956970;29;20223;-61
2020/12/26 02:32:26;;;;;;;5.63;3.30;;;1.30;99.90;;;;;;4956543;29;20196;-62
2020/12/26 02:34:54;;;;;;;1.17;1.08;;;1.30;99.90;;;;;;4955735;28;20192;-61
2020/12/26 02:37:21;;;;;;;1.70;1.30;;;1.30;99.90;;;;;;4957111;29;20211;-61
2020/12/26 02:39:51;;;;;;;3.95;2.17;;;1.30;99.90;;;;;;4957270;29;20216;-61
2020/12/26 02:42:19;;;;;;;1.90;1.23;;;1.20;99.90;;;;;;4956205;29;20219;-57
2020/12/26 02:44:46;;;;;;;1.70;1.40;;;1.20;99.90;;;;;;4956793;29;20716;-62
2020/12/26 02:47:14;;;;;;;1.13;1.00;;;1.20;99.90;;;;;;4956364;29;20239;-62
2020/12/26 02:49:42;;;;;;;2.97;1.15;;;1.20;99.90;;;;;;4956055;29;20223;-61
2020/12/26 02:52:09;;;;;;;1.15;1.00;;;1.20;99.90;;;;;;4956590;29;20173;-61
2020/12/26 02:54:37;;;;;;;2.92;1.00;;;1.20;99.90;;;;;;4955944;29;20235;-58
2020/12/26 02:57:04;;;;;;;2.92;2.58;;;1.20;99.90;;;;;;4956282;29;20220;-61
2020/12/26 02:59:32;;;;;;;3.38;2.13;;;1.20;99.90;;;;;;4938762;29;20216;-61
2020/12/26 03:01:59;;;;;;;2.38;1.25;;;1.20;99.90;;;;;;4955815;29;20267;-60
2020/12/26 03:04:26;;;;;;;1.90;1.13;;;1.20;99.90;;;;;;4955880;29;20611;-61
2020/12/26 03:06:54;;;;;;;1.73;1.05;;;1.20;99.90;;;;;;4955807;29;20187;-59
2020/12/26 03:09:21;;;;;;;3.97;2.05;;;1.20;99.90;;;;;;4955764;29;20237;-61
2020/12/26 03:11:49;;;;;;;1.80;1.10;;;1.20;99.90;;;;;;4956032;29;20290;-61
2020/12/26 03:14:17;;;;;;;2.28;1.00;;;1.20;99.90;;;;;;4956066;29;20204;-58
2020/12/26 03:16:45;;;;;;;1.10;1.00;;;1.20;99.90;;;;;;4956280;29;20259;-57
2020/12/26 03:19:12;;;;;;;1.65;0.90;;;1.20;99.90;;;;;;4955904;29;20220;-59
2020/12/26 03:21:39;;;;;;;2.65;1.27;;;1.20;99.90;;;;;;4955801;29;20181;-61
2020/12/26 03:24:07;;;;;;;2.58;1.77;;;1.20;99.90;;;;;;4938551;29;20235;-60
2020/12/26 03:26:34;;;;;;;1.80;1.70;;;1.20;99.90;;;;;;4955628;29;20191;-61
2020/12/26 03:29:02;;;;;;;1.77;1.52;;;1.20;99.90;;;;;;4955953;29;20212;-61
2020/12/26 03:31:29;;;;;;;2.47;1.58;;;1.20;99.90;;;;;;4956160;29;20191;-60
2020/12/26 03:33:57;;;;;;;1.65;0.90;;;1.20;99.90;;;;;;4939078;29;20684;-59
2020/12/26 03:36:24;;;;;;;1.45;1.30;;;1.10;99.90;;;;;;4956130;29;20180;-61
2020/12/26 03:38:52;;;;;;;1.10;0.80;;;1.10;99.90;;;;;;4956294;29;20180;-60
2020/12/26 03:41:19;;;;;;;0.80;0.60;;;1.10;99.90;;;;;;4955861;29;20173;-61
2020/12/26 03:43:46;;;;;;;0.95;0.70;;;1.10;99.90;;;;;;4938460;29;20208;-60
2020/12/26 03:46:13;;;;;;;3.35;1.30;;;1.20;99.90;;;;;;4936966;29;20197;-59
2020/12/26 03:48:41;;;;;;;1.40;1.00;;;1.10;99.90;;;;;;4929887;29;20189;-61
2020/12/26 03:51:10;;;;;;;3.78;2.40;;;1.20;99.90;;;;;;4917161;29;20177;-61
2020/12/26 03:53:37;;;;;;;1.05;0.95;;;1.20;99.90;;;;;;4917116;29;20198;-60
2020/12/26 03:56:04;;;;;;;2.30;1.30;;;1.20;99.90;;;;;;4917011;29;20181;-61
2020/12/26 03:58:31;;;;;;;1.38;1.05;;;1.20;99.90;;;;;;4916477;29;20598;-59
2020/12/26 04:00:58;;;;;;;1.38;1.00;;;1.20;99.90;;;;;;4917149;29;20241;-58
2020/12/26 04:03:25;;;;;;;3.17;1.45;;;1.20;99.90;;;;;;4917485;29;20201;-56
2020/12/26 04:05:52;;;;;;;3.78;1.20;;;1.20;99.90;;;;;;4917406;29;20185;-60
2020/12/26 04:08:20;;;;;;;1.77;1.30;;;1.10;99.90;;;;;;4899314;29;20220;-59
2020/12/26 04:10:47;;;;;;;1.80;1.10;;;1.10;99.90;;;;;;4916003;29;20209;-57
2020/12/26 04:13:14;;;;;;;9.02;1.88;;;1.00;99.90;;;;;;4915505;29;20702;-54
2020/12/26 04:15:42;;;;;;;1.00;0.80;;;1.00;99.90;;;;;;4915896;29;20194;-57
2020/12/26 04:18:09;;;;;;;2.65;1.58;;;1.00;99.90;;;;;;4915660;29;20174;-57
2020/12/26 04:20:37;;;;;;;4.75;1.20;;;1.00;99.90;;;;;;4915817;29;20213;-57
2020/12/26 04:23:05;;;;;;;1.25;1.15;;;1.00;99.90;;;;;;4915662;29;20205;-60
2020/12/26 04:25:33;;;;;;;1.45;1.35;;;1.00;99.90;;;;;;4915436;29;20185;-58
2020/12/26 04:28:00;;;;;;;0.90;0.70;;;1.10;99.90;;;;;;4915875;29;20197;-59
2020/12/26 04:30:27;;;;;;;1.33;0.80;;;1.10;99.90;;;;;;4916023;29;20213;-62
2020/12/26 04:32:54;;;;;;;1.75;1.30;;;1.10;99.90;;;;;;4915989;29;20194;-58
2020/12/26 04:35:21;;;;;;;0.80;0.60;;;1.20;99.90;;;;;;4917642;29;20193;-61
2020/12/26 04:37:50;;;;;;;1.73;0.82;;;1.10;99.90;;;;;;4917145;29;20186;-60
2020/12/26 04:40:17;;;;;;;2.38;1.08;;;1.20;99.90;;;;;;4915774;29;20623;-59
2020/12/26 04:42:46;;;;;;;2.03;1.02;;;1.20;99.90;;;;;;4916185;29;20572;-62
2020/12/26 04:45:13;;;;;;;1.38;1.10;;;1.20;99.90;;;;;;4916068;29;20178;-62
2020/12/26 04:47:43;;;;;;;0.90;0.80;;;1.20;99.90;;;;;;4915964;29;20204;-59
2020/12/26 04:50:10;;;;;;;1.33;1.23;;;1.20;99.90;;;;;;4916489;29;20257;-59
2020/12/26 04:52:44;;;;;;;2.15;1.38;;;1.20;99.90;;;;;;4916707;29;20192;-58
2020/12/26 04:55:12;;;;;;;1.75;1.20;;;1.20;99.90;;;;;;4917063;29;20726;-59
2020/12/26 04:57:39;;;;;;;4.30;1.10;;;1.10;99.90;;;;;;4916894;29;20563;-60
2020/12/26 05:00:07;;;;;;;1.42;1.00;;;1.10;99.90;;;;;;4917641;29;20716;-60
2020/12/26 05:02:37;;;;;;;1.75;1.38;;;1.10;99.90;;;;;;4916117;29;20687;-59
2020/12/26 05:05:04;;;;;;;1.00;0.80;;;1.20;99.90;;;;;;4916214;29;20233;-57
2020/12/26 05:07:32;;;;;;;4.20;1.38;;;1.20;99.90;;;;;;4898677;29;20190;-59
2020/12/26 05:09:59;;;;;;;2.45;0.95;;;1.20;99.90;;;;;;4915921;29;20213;-60
2020/12/26 05:12:26;;;;;;;2.08;0.70;;;1.20;99.90;;;;;;4915807;29;20197;-60
2020/12/26 05:14:53;;;;;;;1.75;1.35;;;1.10;99.90;;;;;;4915820;29;20534;-58
2020/12/26 05:17:22;;;;;;;1.38;0.90;;;1.20;99.90;;;;;;4915999;29;20197;-59
2020/12/26 05:19:50;;;;;;;1.48;0.80;;;1.20;99.90;;;;;;4916020;29;20205;-59
2020/12/26 05:22:28;;;;;;;2.72;1.48;;;1.20;99.90;;;;;;4915547;29;20198;-59
2020/12/26 05:25:05;;;;;;;0.98;0.85;;;1.10;99.90;;;;;;4915705;29;20233;-61
2020/12/26 05:27:33;;;;;;;0.80;0.60;;;1.10;99.90;;;;;;4915660;29;20252;-59
2020/12/26 05:30:01;;;;;;;1.58;0.85;;;1.00;99.90;;;;;;4915376;29;20213;-59
2020/12/26 05:32:29;;;;;;;1.58;1.27;;;0.90;99.90;;;;;;4915480;29;20182;-61
2020/12/26 05:35:04;;;;;;;5.68;1.45;;;0.90;99.90;;;;;;4898560;29;20182;-61
2020/12/26 05:37:31;;;;;;;1.27;1.17;;;0.70;99.90;;;;;;4915252;29;20186;-60
2020/12/26 05:40:00;;;;;;;1.20;1.10;;;0.60;99.90;;;;;;4915708;29;20217;-58
2020/12/26 05:42:29;;;;;;;3.58;1.88;;;0.50;99.90;;;;;;4916547;29;20618;-58
2020/12/26 05:45:09;;;;;;;1.13;0.80;;;0.30;99.90;;;;;;4916213;29;20182;-60
2020/12/26 05:47:37;;;;;;;2.55;1.65;;;0.20;99.90;;;;;;4915607;29;20181;-60
2020/12/26 05:50:04;;;;;;;2.85;0.80;;;0.10;99.90;;;;;;4915488;29;20218;-61
2020/12/26 05:52:54;;;;;;;11.13;1.02;;;0.00;99.90;;;;;;4916114;29;20543;-60
2020/12/26 05:55:22;;;;;;;3.67;0.80;;;0.00;99.90;;;;;;4916039;29;20601;-59
2020/12/26 05:57:53;;;;;;;1.88;1.20;;;-0.10;99.90;;;;;;4915918;29;20193;-61
2020/12/26 06:00:32;;;;;;;1.30;1.20;;;-0.20;99.90;;;;;;4916217;29;20300;-55
2020/12/26 06:03:00;;;;;;;0.80;0.60;;;-0.30;99.90;;;;;;4899197;29;20206;-58
2020/12/26 06:05:28;;;;;;;1.10;0.90;;;-0.30;99.90;;;;;;4915961;29;20178;-58
2020/12/26 06:07:55;;;;;;;1.10;1.00;;;-0.40;99.90;;;;;;4916603;29;20197;-55
2020/12/26 06:10:23;;;;;;;1.88;1.77;;;-0.40;99.90;;;;;;4918902;29;20598;-60
2020/12/26 06:12:51;;;;;;;2.03;1.20;;;-0.40;99.90;;;;;;4919551;29;20663;-58
2020/12/26 06:15:24;;;;;;;2.88;1.70;;;-0.50;99.90;;;;;;4919225;29;20190;-59
2020/12/26 06:18:12;;;;;;;3.92;1.65;;;-0.40;99.90;;;;;;4918927;29;20181;-59
2020/12/26 06:20:39;;;;;;;3.13;1.30;;;-0.50;99.90;;;;;;4918564;29;20526;-59
2020/12/26 06:23:15;;;;;;;1.75;1.35;;;-0.60;99.90;;;;;;4918678;29;20797;-59
2020/12/26 06:25:43;;;;;;;1.98;1.75;;;-0.60;99.90;;;;;;4918501;29;20182;-57
2020/12/26 06:28:27;;;;;;;3.63;2.22;;;-0.60;99.90;;;;;;4918341;29;20182;-59
2020/12/26 06:30:56;;;;;;;2.83;1.85;;;-0.60;99.90;;;;;;4916821;29;20702;-57
2020/12/26 06:33:30;;;;;;;3.88;2.10;;;-0.60;99.90;;;;;;4918399;29;20217;-59
2020/12/26 06:35:58;;;;;;;3.38;2.67;;;-0.60;99.90;;;;;;4918433;29;20659;-59
2020/12/26 06:38:28;;;;;;;1.83;1.25;;;-0.60;99.90;;;;;;4918658;29;20221;-60
2020/12/26 06:41:01;;;;;;;4.28;2.70;;;-0.60;99.90;;;;;;4918311;29;20213;-57
2020/12/26 06:43:49;;;;;;;3.72;2.05;;;-0.60;99.90;;;;;;4918169;29;20208;-60
2020/12/26 06:46:36;;;;;;;3.47;3.17;;;-0.60;99.90;;;;;;4918247;29;20182;-58
2020/12/26 06:49:04;;;;;;;4.20;3.80;;;-0.50;99.90;;;;;;4918636;29;20239;-59
2020/12/26 06:51:33;;;;;;;2.95;2.40;;;-0.50;99.90;;;;;;4918345;29;20519;-60
2020/12/26 06:54:01;;;;;;;1.80;1.52;;;-0.40;99.90;;;;;;4917256;29;20241;-61
2020/12/26 06:56:48;;;;;;;14.00;4.75;;;-0.40;99.90;;;;;;4917001;29;20182;-60
2020/12/26 06:59:15;;;;;;;5.00;4.47;;;-0.20;99.90;;;;;;4917016;29;20698;-59
2020/12/26 07:01:44;;;;;;;6.20;3.25;;;-0.20;99.90;;;;;;4916617;29;20197;-61
2020/12/26 07:04:17;;;;;;;3.40;3.10;;;-0.10;99.90;;;;;;4916707;29;20202;-57
2020/12/26 07:06:45;;;;;;;6.43;2.50;;;0.00;99.90;;;;;;4917003;29;20578;-61
2020/12/26 07:09:14;;;;;;;5.03;4.18;;;0.00;99.90;;;;;;4929196;29;20212;-62
2020/12/26 07:11:46;;;;;;;5.88;5.30;;;0.10;99.90;;;;;;4949065;23;20228;-62
2020/12/26 07:14:29;;;;;;;4.45;3.58;;;0.10;99.90;;;;;;4922761;29;20197;-60
2020/12/26 07:16:57;;;;;;;4.15;2.47;;;0.30;99.90;;;;;;4903858;29;20438;-60
2020/12/26 07:19:43;;;;;;;4.32;3.63;;;0.30;99.90;;;;;;4907803;29;20210;-58
2020/12/26 07:22:15;;;;;;;3.75;3.45;;;0.30;99.90;;;;;;4897733;29;20646;-60
2020/12/26 07:24:45;;;;;;;7.72;4.65;;;0.30;99.90;;;;;;4898631;29;20289;-53
2020/12/26 07:27:26;;;;;;;4.75;3.67;;;0.20;99.90;;;;;;4898769;29;20195;-60
2020/12/26 07:29:59;;;;;;;5.65;4.75;;;0.20;99.90;;;;;;4899742;29;20289;-59
2020/12/26 07:33:00;;;;;;;9.82;6.18;;;0.10;99.90;;;;;;4898535;29;20221;-60
2020/12/26 07:35:31;;;;;;;14.85;8.02;;;0.10;99.90;;;;;;4897729;29;20215;-59
2020/12/26 07:38:01;;;;;;;8.10;5.40;;;0.00;99.90;;;;;;4898002;29;20667;-57
2020/12/26 07:40:30;;;;;;;8.25;3.97;;;0.00;99.90;;;;;;4898129;29;20667;-59
2020/12/26 07:42:58;;;;;;;10.80;3.72;;;0.00;99.90;;;;;;4897657;29;20202;-56
2020/12/26 07:45:26;;;;;;;8.07;5.97;;;0.00;99.90;;;;;;4898094;29;20186;-57
2020/12/26 07:47:55;;;;;;;10.00;5.57;;;-0.10;99.90;;;;;;4897528;29;20201;-57
2020/12/26 07:50:23;;;;;;;8.65;6.30;;;-0.10;99.90;;;;;;4897360;29;20218;-59
2020/12/26 07:52:53;;;;;;;8.18;7.13;;;0.00;99.90;;;;;;4897475;29;20181;-59
2020/12/26 07:55:21;;;;;;;7.45;6.30;;;0.00;99.90;;;;;;4897710;29;20660;-56
2020/12/26 07:57:49;;;;;;;7.63;6.45;;;0.00;99.90;;;;;;4897343;29;20191;-53
2020/12/26 08:00:27;;;;;;;17.92;8.88;;;0.10;99.90;;;;;;4896912;29;20209;-58
2020/12/26 08:02:56;;;;;;;12.25;6.13;;;0.20;99.90;;;;;;4897154;29;20212;-56
2020/12/26 08:05:24;;;;;;;6.45;4.80;;;0.20;99.90;;;;;;4897051;29;20246;-56
2020/12/26 08:07:53;;;;;;;12.02;5.40;;;0.20;99.90;;;;;;4897216;29;20206;-56
2020/12/26 08:10:22;;;;;;;9.10;5.70;;;0.20;99.90;;;;;;4897081;29;20254;-58
2020/12/26 08:12:51;;;;;;;8.23;5.25;;;0.30;99.90;;;;;;4896788;29;20194;-56
2020/12/26 08:15:19;;;;;;;12.05;6.90;;;0.30;99.90;;;;;;4897436;29;20667;-58
2020/12/26 08:17:48;;;;;;;6.88;4.60;;;0.20;99.90;;;;;;4897193;29;20588;-58
2020/12/26 08:20:16;;;;;;;7.82;5.00;;;0.30;99.90;;;;;;4897407;29;20214;-59
2020/12/26 08:22:43;;;;;;;11.30;6.93;;;0.30;99.90;;;;;;4896963;29;20714;-58
2020/12/26 08:25:12;;;;;;;9.98;5.72;;;0.40;99.90;;;;;;4897281;29;20187;-58
2020/12/26 08:27:40;;;;;;;8.80;5.90;;;0.40;99.90;;;;;;4897233;29;20670;-53
2020/12/26 08:30:10;;;;;;;9.30;6.75;;;0.50;99.90;;;;;;4896965;29;20497;-56
2020/12/26 08:32:47;;;;;;;8.68;6.63;;;0.40;99.90;;;;;;4895998;29;20567;-59
2020/12/26 08:35:16;;;;;;;9.68;5.93;;;0.50;99.90;;;;;;4896849;29;20178;-59
2020/12/26 08:37:46;;;;;;;14.18;6.82;;;0.60;99.90;;;;;;4896813;29;20201;-58
2020/12/26 08:40:16;;;;;;;11.90;7.05;;;0.60;99.90;;;;;;4896728;29;20210;-57
2020/12/26 08:42:43;;;;;;;8.93;5.78;;;0.60;99.90;;;;;;4896935;29;20707;-60
2020/12/26 08:45:26;;;;;;;10.18;6.25;;;0.70;99.90;;;;;;4897103;29;20206;-57
2020/12/26 08:47:55;;;;;;;10.68;5.28;;;0.70;99.90;;;;;;4896535;29;20186;-58
2020/12/26 08:50:22;;;;;;;9.02;4.68;;;0.70;99.90;;;;;;4897252;29;20584;-57
2020/12/26 08:53:02;;;;;;;10.80;5.28;;;0.70;99.90;;;;;;4896994;29;20230;-59
2020/12/26 08:55:30;;;;;;;4.30;3.35;;;0.80;99.90;;;;;;4896723;29;20644;-59
2020/12/26 08:57:58;;;;;;;6.75;3.92;;;0.90;99.90;;;;;;4896497;29;20618;-59
2020/12/26 09:00:27;;;;;;;7.53;6.63;;;1.00;99.90;;;;;;4896312;29;20214;-59
2020/12/26 09:02:55;;;;;;;9.80;6.50;;;1.10;99.90;;;;;;4896308;29;20217;-58
2020/12/26 09:05:28;;;;;;;18.50;7.90;;;1.20;99.90;;;;;;4896629;29;20689;-56
2020/12/26 09:08:06;;;;;;;12.68;6.80;;;1.20;99.90;;;;;;4896727;29;20549;-58
2020/12/26 09:10:35;;;;;;;9.77;5.60;;;1.20;99.90;;;;;;4896920;29;20352;-57
2020/12/26 09:13:04;;;;;;;13.48;5.93;;;1.30;99.90;;;;;;4897123;29;20190;-57
2020/12/26 09:15:52;;;;;;;10.02;7.03;;;1.40;99.90;;;;;;4896794;29;20178;-58
2020/12/26 09:18:21;;;;;;;9.63;6.78;;;1.40;99.90;;;;;;4896976;29;20190;-58
2020/12/26 09:20:54;;;;;;;14.90;8.65;;;1.50;99.90;;;;;;4896938;29;20225;-58
2020/12/26 09:23:23;;;;;;;11.45;7.90;;;1.50;99.90;;;;;;4896530;29;20206;-59
2020/12/26 09:26:07;;;;;;;13.57;7.47;;;1.50;99.90;;;;;;4896756;29;20186;-57
2020/12/26 09:28:45;;;;;;;16.33;9.63;;;1.60;99.90;;;;;;4880476;29;20190;-58
2020/12/26 09:31:13;;;;;;;5.55;4.95;;;1.60;99.90;;;;;;4908162;29;20689;-58
2020/12/26 09:33:41;;;;;;;11.82;7.18;;;1.60;99.90;;;;;;4916453;29;20213;-58
2020/12/26 09:36:11;;;;;;;7.35;6.40;;;1.70;99.90;;;;;;4916927;29;20499;-59
2020/12/26 09:38:39;;;;;;;9.23;6.88;;;1.80;99.90;;;;;;4898440;29;20196;-59
2020/12/26 09:41:15;;;;;;;9.27;7.30;;;1.80;99.90;;;;;;4932036;29;20224;-59
2020/12/26 09:43:43;;;;;;;14.27;7.75;;;1.90;99.90;;;;;;4934124;29;20219;-59
2020/12/26 09:46:11;;;;;;;13.20;5.28;;;2.00;99.90;;;;;;4937326;29;20229;-58
2020/12/26 09:48:38;;;;;;;12.30;8.10;;;2.20;99.90;;;;;;4936803;29;20584;-58
2020/12/26 09:51:11;;;;;;;14.55;6.90;;;2.40;99.90;;;;;;4937250;29;20221;-59
2020/12/26 09:53:38;;;;;;;10.50;7.20;;;2.30;99.90;;;;;;4937257;29;20180;-54
2020/12/26 09:56:09;;;;;;;9.30;6.10;;;2.20;99.90;;;;;;4937137;29;20236;-58
2020/12/26 09:58:38;;;;;;;10.00;6.25;;;2.20;99.90;;;;;;4936895;29;20313;-58
2020/12/26 10:01:05;;;;;;;13.95;7.28;;;2.30;99.90;;;;;;4936757;29;20209;-58
2020/12/26 10:03:33;;;;;;;8.70;5.80;;;2.40;99.90;;;;;;4936963;29;20201;-54
2020/12/26 10:06:00;;;;;;;10.90;7.50;;;2.50;99.90;;;;;;4936943;29;20240;-57
2020/12/26 10:08:29;;;;;;;8.70;5.93;;;2.50;99.90;;;;;;4936757;29;20208;-60
2020/12/26 10:10:56;;;;;;;8.90;5.95;;;2.40;99.90;;;;;;4920412;29;20714;-58
2020/12/26 10:13:23;;;;;;;7.75;6.22;;;2.30;99.90;;;;;;4937241;29;20546;-59
2020/12/26 10:15:51;;;;;;;11.75;8.15;;;2.30;99.90;;;;;;4937153;29;20248;-57
2020/12/26 10:18:18;;;;;;;11.50;5.85;;;2.20;99.90;;;;;;4937243;29;20550;-57
2020/12/26 10:20:45;;;;;;;11.85;4.95;;;2.00;99.90;;;;;;4937202;29;20217;-57
2020/12/26 10:23:12;;;;;;;8.25;5.90;;;1.90;99.90;;;;;;4937655;29;20226;-59
2020/12/26 10:25:48;;;;;;;8.00;4.50;;;2.00;99.90;;;;;;4937609;29;20185;-60
2020/12/26 10:28:16;;;;;;;5.80;4.40;;;2.00;99.90;;;;;;4928363;29;20292;-57
2020/12/26 10:30:43;;;;;;;8.23;7.35;;;1.90;99.90;;;;;;4924289;29;20213;-58
2020/12/26 10:33:11;;;;;;;11.43;7.13;;;1.90;99.90;;;;;;4925437;29;20190;-57
2020/12/26 10:35:38;;;;;;;7.50;6.43;;;1.90;99.90;;;;;;4930806;29;20217;-56
2020/12/26 10:38:06;;;;;;;7.63;5.95;;;1.90;99.90;;;;;;4908231;29;20209;-59
2020/12/26 10:40:33;;;;;;;8.55;5.95;;;2.00;99.90;;;;;;4918966;29;20574;-57
2020/12/26 10:43:00;;;;;;;12.43;7.20;;;2.00;99.90;;;;;;4917445;29;20209;-58
2020/12/26 10:45:28;;;;;;;10.65;7.25;;;2.10;99.90;;;;;;4917472;29;20182;-58
2020/12/26 10:47:55;;;;;;;9.90;5.78;;;2.10;99.90;;;;;;4913825;29;20190;-56
2020/12/26 10:50:23;;;;;;;8.90;6.28;;;2.10;99.90;;;;;;4915179;29;20220;-56
2020/12/26 10:52:50;;;;;;;16.15;6.03;;;2.20;99.90;;;;;;4917338;29;20715;-54
2020/12/26 10:55:18;;;;;;;9.48;6.53;;;2.30;99.90;;;;;;4919169;29;20242;-60
2020/12/26 10:57:45;;;;;;;5.28;4.78;;;2.20;99.90;;;;;;4909727;29;20264;-55
2020/12/26 11:00:13;;;;;;;7.88;6.88;;;2.10;99.90;;;;;;4917135;29;20268;-60
2020/12/26 11:02:41;;;;;;;12.43;6.57;;;2.00;99.90;;;;;;4909811;29;20194;-54
2020/12/26 11:05:08;;;;;;;11.43;7.18;;;2.00;99.90;;;;;;4900932;29;20261;-59
2020/12/26 11:07:36;;;;;;;8.73;5.60;;;2.10;99.90;;;;;;4913658;29;20627;-59
2020/12/26 11:10:04;;;;;;;7.13;6.20;;;2.10;99.90;;;;;;4916781;29;20217;-56
2020/12/26 11:12:31;;;;;;;12.32;7.38;;;2.00;99.90;;;;;;4916855;29;20233;-58
2020/12/26 11:14:58;;;;;;;12.65;8.80;;;2.00;99.90;;;;;;4916724;29;20178;-59
2020/12/26 11:17:25;;;;;;;10.18;6.57;;;1.90;99.90;;;;;;4917125;29;20198;-56
2020/12/26 11:19:53;;;;;;;8.75;6.40;;;1.90;99.90;;;;;;4916780;29;20232;-59
2020/12/26 11:22:20;;;;;;;15.80;9.55;;;2.00;99.90;;;;;;4916907;29;20565;-59
2020/12/26 11:24:49;;;;;;;9.93;6.88;;;2.00;99.90;;;;;;4916624;29;20202;-57
2020/12/26 11:27:16;;;;;;;12.88;7.85;;;2.00;99.90;;;;;;4899338;29;20198;-60
2020/12/26 11:29:43;;;;;;;18.38;7.40;;;2.00;99.90;;;;;;4916549;29;20217;-59
2020/12/26 11:32:10;;;;;;;9.48;5.80;;;2.00;99.90;;;;;;4916337;29;20222;-56
2020/12/26 11:34:37;;;;;;;12.30;8.25;;;2.10;99.90;;;;;;4916237;29;20189;-59
2020/12/26 11:37:05;;;;;;;13.00;8.80;;;2.10;99.90;;;;;;4916405;29;20547;-59
2020/12/26 11:39:32;;;;;;;13.43;9.35;;;2.10;99.90;;;;;;4916350;29;20217;-61
2020/12/26 11:42:00;;;;;;;16.73;10.68;;;2.10;99.90;;;;;;4915584;29;20532;-55
2020/12/26 11:44:27;;;;;;;11.93;7.60;;;2.10;99.90;;;;;;4915426;29;20249;-58
2020/12/26 11:46:58;;;;;;;15.82;6.72;;;2.20;99.90;;;;;;4923918;29;20204;-57
2020/12/26 11:49:25;;;;;;;12.85;8.45;;;2.20;99.90;;;;;;4917991;29;20245;-59
2020/12/26 11:51:53;;;;;;;10.57;6.63;;;2.10;99.90;;;;;;4916243;29;20181;-59
2020/12/26 11:54:22;;;;;;;10.85;6.07;;;2.10;99.90;;;;;;4916675;29;20189;-57
2020/12/26 11:56:50;;;;;;;9.40;7.90;;;2.00;99.90;;;;;;4916350;29;20237;-59
2020/12/26 11:59:19;;;;;;;8.30;6.95;;;2.10;99.90;;;;;;4908678;29;20213;-56
2020/12/26 12:01:46;;;;;;;12.65;8.57;;;2.10;99.90;;;;;;4920114;29;20197;-59
2020/12/26 12:04:13;;;;;;;12.80;9.57;;;2.10;99.90;;;;;;4916096;29;20666;-58
2020/12/26 12:06:40;;;;;;;7.70;6.03;;;2.10;99.90;;;;;;4915484;29;20201;-56
2020/12/26 12:09:08;;;;;;;10.02;6.95;;;2.20;99.90;;;;;;4915748;29;20213;-58
2020/12/26 12:11:35;;;;;;;14.85;6.75;;;2.30;99.90;;;;;;4915973;29;20200;-59
2020/12/26 12:14:02;;;;;;;7.07;5.45;;;2.30;99.90;;;;;;4914376;29;20268;-55
2020/12/26 12:16:31;;;;;;;7.82;6.25;;;2.40;99.90;;;;;;4897107;29;20204;-60
2020/12/26 12:18:58;;;;;;;8.38;4.68;;;2.30;99.90;;;;;;4897250;29;20190;-56
2020/12/26 12:21:25;;;;;;;7.28;4.75;;;2.20;99.90;;;;;;4915669;29;20200;-60
2020/12/26 12:23:52;;;;;;;12.32;8.35;;;2.30;99.90;;;;;;4915720;29;20205;-60
2020/12/26 12:26:23;;;;;;;6.68;4.22;;;2.40;99.90;;;;;;4915731;29;20193;-59
2020/12/26 12:28:54;;;;;;;7.28;5.30;;;2.40;99.90;;;;;;4913441;29;20181;-58
2020/12/26 12:31:22;;;;;;;7.82;5.25;;;2.30;99.90;;;;;;4902904;29;20276;-58
2020/12/26 12:33:50;;;;;;;6.75;6.00;;;2.30;99.90;;;;;;4933445;29;20173;-56
2020/12/26 12:36:18;;;;;;;9.60;7.20;;;2.30;99.90;;;;;;4934887;29;20244;-58
2020/12/26 12:38:45;;;;;;;12.07;8.20;;;2.40;99.90;;;;;;4934971;29;20189;-56
2020/12/26 12:41:14;;;;;;;7.10;5.05;;;2.40;99.90;;;;;;4934311;29;20196;-57
2020/12/26 12:43:41;;;;;;;6.25;5.65;;;2.50;99.90;;;;;;4933555;29;20208;-56
2020/12/26 12:46:10;;;;;;;6.95;6.05;;;2.50;99.90;;;;;;4935198;29;20197;-57
2020/12/26 12:48:37;;;;;;;11.25;6.13;;;2.50;99.90;;;;;;4934834;29;20196;-55
2020/12/26 12:51:06;;;;;;;10.15;6.65;;;2.40;99.90;;;;;;4934456;29;20244;-61
2020/12/26 12:53:33;;;;;;;5.78;5.15;;;2.60;99.90;;;;;;4934795;29;20212;-58
2020/12/26 12:56:00;;;;;;;11.15;7.35;;;2.60;99.90;;;;;;4934743;29;20208;-56
2020/12/26 12:58:28;;;;;;;11.52;6.50;;;2.70;99.90;;;;;;4934369;29;20187;-58
2020/12/26 13:00:55;;;;;;;9.10;5.55;;;2.80;99.90;;;;;;4932791;29;20593;-55
2020/12/26 13:03:22;;;;;;;12.20;7.15;;;2.80;99.90;;;;;;4934433;29;20233;-58